Time,TemperatureF,DewpointF,PressureIn,WindDirection,WindDirectionDegrees,WindSpeedMPH,WindSpeedGustMPH,Humidity,HourlyPrecipIn,Conditions,Clouds,dailyrainin,SoftwareType,DateUTC
2013-09-25 00:02:00,48.7,45.3,29.82,South,180,6.9,6.9,88,0.08,RA,FEW,0.00,WeatherDisplay:10.37,2013-09-25 07:02:00,
2013-09-25 00:07:00,48.6,45.2,29.82,South,180,6.9,6.9,88,0.08,RA,FEW,0.02,WeatherDisplay:10.37,2013-09-25 07:07:00,
2013-09-25 00:12:00,48.6,45.2,29.82,South,180,7.2,7.2,88,0.10,RA,FEW,0.04,WeatherDisplay:10.37,2013-09-25 07:12:00,
2013-09-25 00:17:00,48.4,45.0,29.82,South,180,7.6,7.6,88,0.10,RA,FEW,0.04,WeatherDisplay:10.37,2013-09-25 07:17:00,
2013-09-25 00:22:00,48.4,45.0,29.82,South,180,5.8,5.8,88,0.08,CLR,FEW,0.04,WeatherDisplay:10.37,2013-09-25 07:22:00,
2013-09-25 00:27:00,48.4,45.0,29.82,South,180,7.2,7.2,88,0.08,CLR,FEW,0.04,WeatherDisplay:10.37,2013-09-25 07:27:00,
2013-09-25 00:32:00,48.4,45.0,29.82,SSE,158,6.9,7.5,88,0.08,CLR,FEW,0.04,WeatherDisplay:10.37,2013-09-25 07:32:00,
2013-09-25 00:37:00,48.2,44.8,29.82,South,180,5.8,5.8,88,0.10,RA,FEW,0.06,WeatherDisplay:10.37,2013-09-25 07:37:00,
2013-09-25 00:42:00,48.2,44.8,29.82,South,180,2.3,2.3,88,0.08,RA,FEW,0.06,WeatherDisplay:10.37,2013-09-25 07:42:00,
2013-09-25 00:47:00,48.2,44.8,29.82,SSE,158,3.5,3.5,88,0.08,RA,FEW,0.08,WeatherDisplay:10.37,2013-09-25 07:47:00,
2013-09-25 00:52:00,48.2,44.8,29.82,SSE,158,2.3,2.3,88,0.08,RA,FEW,0.08,WeatherDisplay:10.37,2013-09-25 07:52:00,
2013-09-25 00:57:00,48.2,45.1,29.82,SSE,158,1.1,1.1,89,0.08,CLR,FEW,0.08,WeatherDisplay:10.37,2013-09-25 07:57:00,
2013-09-25 01:02:00,48.2,45.1,29.82,SSE,158,2.3,2.3,89,0.08,CLR,FEW,0.08,WeatherDisplay:10.37,2013-09-25 08:02:00,
2013-09-25 01:07:00,48.0,44.9,29.82,SSE,158,2.3,2.3,89,0.06,CLR,FEW,0.08,WeatherDisplay:10.37,2013-09-25 08:07:00,
2013-09-25 01:12:00,48.0,44.9,29.81,SSE,158,0.0,0.0,89,0.04,CLR,FEW,0.08,WeatherDisplay:10.37,2013-09-25 08:12:00,
2013-09-25 01:17:00,48.0,44.9,29.81,South,180,6.9,7.2,89,0.04,CLR,FEW,0.10,WeatherDisplay:10.37,2013-09-25 08:17:00,
2013-09-25 01:22:00,48.0,44.9,29.82,South,180,8.1,8.1,89,0.06,RA,FEW,0.10,WeatherDisplay:10.37,2013-09-25 08:22:00,
2013-09-25 01:27:00,48.0,44.9,29.81,South,180,4.6,4.6,89,0.06,RA,FEW,0.10,WeatherDisplay:10.37,2013-09-25 08:27:00,
2013-09-25 01:32:00,48.0,44.9,29.82,SSE,158,2.3,2.5,89,0.06,CLR,FEW,0.10,WeatherDisplay:10.37,2013-09-25 08:32:00,
2013-09-25 01:37:00,48.0,44.9,29.81,SSE,158,1.1,0.0,89,0.04,CLR,FEW,0.10,WeatherDisplay:10.37,2013-09-25 08:37:00,
2013-09-25 01:42:00,48.0,44.9,29.82,SSE,158,2.3,2.3,89,0.04,CLR,FEW,0.10,WeatherDisplay:10.37,2013-09-25 08:42:00,
2013-09-25 01:47:00,48.0,44.9,29.82,SE,135,3.5,3.5,89,0.02,CLR,FEW,0.10,WeatherDisplay:10.37,2013-09-25 08:47:00,
2013-09-25 01:52:00,48.0,44.9,29.82,SE,135,0.0,0.0,89,0.02,CLR,FEW,0.10,WeatherDisplay:10.37,2013-09-25 08:52:00,
2013-09-25 01:57:00,48.0,44.9,29.81,SE,135,0.0,0.0,89,0.02,CLR,FEW,0.10,WeatherDisplay:10.37,2013-09-25 08:57:00,
2013-09-25 02:02:00,48.0,44.9,29.81,SE,135,0.0,0.0,89,0.02,CLR,FEW,0.10,WeatherDisplay:10.37,2013-09-25 09:02:00,
2013-09-25 02:07:00,48.0,44.9,29.81,SE,135,0.0,0.0,89,0.02,CLR,FEW,0.10,WeatherDisplay:10.37,2013-09-25 09:07:00,
2013-09-25 02:12:00,48.0,44.9,29.81,SE,135,0.0,0.0,89,0.02,CLR,FEW,0.10,WeatherDisplay:10.37,2013-09-25 09:12:00,
2013-09-25 02:17:00,48.0,44.9,29.81,SE,135,0.0,0.0,89,0.02,CLR,FEW,0.10,WeatherDisplay:10.37,2013-09-25 09:17:00,
2013-09-25 02:22:00,48.0,44.9,29.81,SE,135,2.3,2.3,89,0.00,CLR,FEW,0.10,WeatherDisplay:10.37,2013-09-25 09:22:00,
2013-09-25 02:27:00,48.0,44.9,29.80,SE,135,1.1,1.1,89,0.00,CLR,FEW,0.10,WeatherDisplay:10.37,2013-09-25 09:27:00,
2013-09-25 02:32:00,48.0,44.9,29.80,SE,135,0.0,0.0,89,0.00,CLR,FEW,0.10,WeatherDisplay:10.37,2013-09-25 09:32:00,
2013-09-25 02:37:00,48.0,44.9,29.80,SSE,158,0.0,0.0,89,0.00,CLR,FEW,0.10,WeatherDisplay:10.37,2013-09-25 09:37:00,
2013-09-25 02:42:00,48.0,44.9,29.80,SSE,158,0.0,0.0,89,0.00,CLR,FEW,0.10,WeatherDisplay:10.37,2013-09-25 09:42:00,
2013-09-25 02:47:00,48.0,44.9,29.80,SSE,158,0.0,0.0,89,0.00,CLR,FEW,0.10,WeatherDisplay:10.37,2013-09-25 09:47:00,
2013-09-25 02:52:00,48.0,44.9,29.79,SSE,158,0.0,0.0,89,0.00,CLR,FEW,0.10,WeatherDisplay:10.37,2013-09-25 09:52:00,
2013-09-25 02:57:00,48.0,44.9,29.79,SSE,158,0.0,0.0,89,0.00,CLR,FEW,0.10,WeatherDisplay:10.37,2013-09-25 09:57:00,
2013-09-25 03:02:00,48.0,44.9,29.79,SSE,158,0.0,0.0,89,0.00,CLR,FEW,0.10,WeatherDisplay:10.37,2013-09-25 10:02:00,
2013-09-25 03:07:00,48.0,44.9,29.79,SSE,158,0.0,0.0,89,0.00,CLR,FEW,0.10,WeatherDisplay:10.37,2013-09-25 10:07:00,
2013-09-25 03:12:00,48.2,45.1,29.79,SSE,158,0.0,0.0,89,0.00,CLR,FEW,0.10,WeatherDisplay:10.37,2013-09-25 10:12:00,
2013-09-25 03:17:00,48.2,45.1,29.79,SSE,158,0.0,0.0,89,0.00,CLR,FEW,0.10,WeatherDisplay:10.37,2013-09-25 10:17:00,
2013-09-25 03:22:00,48.2,45.1,29.79,SSE,158,2.3,0.0,89,0.00,CLR,FEW,0.10,WeatherDisplay:10.37,2013-09-25 10:22:00,
2013-09-25 03:27:00,48.2,45.1,29.79,SSE,158,0.0,0.0,89,0.00,CLR,FEW,0.10,WeatherDisplay:10.37,2013-09-25 10:27:00,
2013-09-25 03:32:00,48.0,44.9,29.79,SSE,158,0.0,0.0,89,0.00,CLR,FEW,0.10,WeatherDisplay:10.37,2013-09-25 10:32:00,
2013-09-25 03:37:00,48.0,44.9,29.79,SSE,158,0.0,0.0,89,0.00,CLR,FEW,0.10,WeatherDisplay:10.37,2013-09-25 10:37:00,
2013-09-25 03:42:00,48.0,44.9,29.79,SSE,158,0.0,0.0,89,0.00,CLR,FEW,0.10,WeatherDisplay:10.37,2013-09-25 10:42:00,
2013-09-25 03:48:00,48.0,44.9,29.79,SSE,158,0.0,0.0,89,0.00,CLR,FEW,0.10,WeatherDisplay:10.37,2013-09-25 10:48:00,
2013-09-25 03:53:00,48.2,45.1,29.79,SSE,158,0.0,0.0,89,0.00,CLR,FEW,0.10,WeatherDisplay:10.37,2013-09-25 10:53:00,
2013-09-25 03:58:00,48.2,45.1,29.79,SSE,158,0.0,0.0,89,0.00,CLR,FEW,0.10,WeatherDisplay:10.37,2013-09-25 10:58:00,
2013-09-25 04:03:00,48.4,45.3,29.78,SSE,158,0.0,0.0,89,0.00,CLR,FEW,0.10,WeatherDisplay:10.37,2013-09-25 11:03:00,
2013-09-25 04:08:00,48.4,45.3,29.78,SSE,158,0.0,0.0,89,0.00,CLR,FEW,0.10,WeatherDisplay:10.37,2013-09-25 11:08:00,
2013-09-25 04:13:00,48.4,45.3,29.78,SSE,158,0.0,0.0,89,0.00,CLR,FEW,0.10,WeatherDisplay:10.37,2013-09-25 11:13:00,
2013-09-25 04:18:00,48.4,45.3,29.78,SSE,158,0.0,0.0,89,0.00,CLR,FEW,0.10,WeatherDisplay:10.37,2013-09-25 11:18:00,
2013-09-25 04:23:00,48.4,45.3,29.79,SSE,158,0.0,0.0,89,0.00,CLR,FEW,0.10,WeatherDisplay:10.37,2013-09-25 11:23:00,
2013-09-25 04:28:00,48.4,45.3,29.78,SSE,158,0.0,0.0,89,0.00,CLR,FEW,0.10,WeatherDisplay:10.37,2013-09-25 11:28:00,
2013-09-25 04:33:00,48.4,45.3,29.78,SSE,158,0.0,0.0,89,0.00,CLR,FEW,0.10,WeatherDisplay:10.37,2013-09-25 11:33:00,
2013-09-25 04:38:00,48.2,45.1,29.78,SSE,158,0.0,0.0,89,0.00,CLR,FEW,0.10,WeatherDisplay:10.37,2013-09-25 11:38:00,
2013-09-25 04:43:00,48.2,45.1,29.79,SSE,158,0.0,0.0,89,0.00,CLR,FEW,0.10,WeatherDisplay:10.37,2013-09-25 11:43:00,
2013-09-25 04:48:00,48.4,45.3,29.78,SSE,158,0.0,0.0,89,0.00,CLR,FEW,0.10,WeatherDisplay:10.37,2013-09-25 11:48:00,
2013-09-25 04:53:00,48.4,45.3,29.78,SSE,158,0.0,0.0,89,0.00,CLR,FEW,0.10,WeatherDisplay:10.37,2013-09-25 11:53:00,
2013-09-25 04:58:00,48.4,45.3,29.78,SSE,158,0.0,0.0,89,0.00,CLR,FEW,0.10,WeatherDisplay:10.37,2013-09-25 11:58:00,
2013-09-25 05:03:00,48.4,45.3,29.78,SSE,158,0.0,0.0,89,0.00,CLR,FEW,0.10,WeatherDisplay:10.37,2013-09-25 12:03:00,
2013-09-25 05:08:00,48.4,45.3,29.78,SSE,158,0.0,0.0,89,0.00,CLR,FEW,0.10,WeatherDisplay:10.37,2013-09-25 12:08:00,
2013-09-25 05:13:00,48.4,45.3,29.77,SSE,158,0.0,0.0,89,0.00,CLR,FEW,0.10,WeatherDisplay:10.37,2013-09-25 12:13:00,
2013-09-25 05:18:00,48.4,45.3,29.77,SSE,158,0.0,0.0,89,0.00,CLR,FEW,0.10,WeatherDisplay:10.37,2013-09-25 12:18:00,
2013-09-25 05:23:00,48.6,45.5,29.77,SSE,158,0.0,0.0,89,0.00,CLR,FEW,0.10,WeatherDisplay:10.37,2013-09-25 12:23:00,
2013-09-25 05:27:00,48.4,45.3,29.77,SSE,158,0.0,0.0,89,0.00,CLR,FEW,0.10,WeatherDisplay:10.37,2013-09-25 12:27:00,
2013-09-25 05:32:00,48.4,45.3,29.77,SSE,158,0.0,0.0,89,0.00,CLR,FEW,0.10,WeatherDisplay:10.37,2013-09-25 12:32:00,
2013-09-25 05:37:00,48.4,45.3,29.77,SSE,158,0.0,0.0,89,0.00,CLR,FEW,0.10,WeatherDisplay:10.37,2013-09-25 12:37:00,
2013-09-25 05:42:00,48.6,45.5,29.77,SSE,158,0.0,0.0,89,0.00,CLR,FEW,0.10,WeatherDisplay:10.37,2013-09-25 12:42:00,
2013-09-25 05:47:00,48.6,45.5,29.77,SSE,158,0.0,0.0,89,0.00,CLR,FEW,0.10,WeatherDisplay:10.37,2013-09-25 12:47:00,
2013-09-25 05:52:00,48.6,45.5,29.77,SSE,158,0.0,0.0,89,0.00,CLR,FEW,0.10,WeatherDisplay:10.37,2013-09-25 12:52:00,
2013-09-25 05:57:00,48.6,45.5,29.77,SSE,158,0.0,0.0,89,0.00,CLR,FEW,0.10,WeatherDisplay:10.37,2013-09-25 12:57:00,
2013-09-25 06:02:00,48.7,45.6,29.77,SSE,158,0.0,0.0,89,0.00,CLR,FEW,0.10,WeatherDisplay:10.37,2013-09-25 13:02:00,
2013-09-25 06:08:00,48.6,45.5,29.77,SSE,158,0.0,0.0,89,0.00,CLR,FEW,0.10,WeatherDisplay:10.37,2013-09-25 13:08:00,
2013-09-25 06:13:00,48.6,45.5,29.77,SSE,158,0.0,0.0,89,0.00,CLR,FEW,0.10,WeatherDisplay:10.37,2013-09-25 13:13:00,
2013-09-25 06:18:00,48.6,45.5,29.77,SSE,158,0.0,0.0,89,0.00,CLR,FEW,0.10,WeatherDisplay:10.37,2013-09-25 13:18:00,
2013-09-25 06:23:00,48.6,45.5,29.77,SSE,158,0.0,0.0,89,0.00,CLR,FEW,0.10,WeatherDisplay:10.37,2013-09-25 13:23:00,
2013-09-25 06:28:00,48.6,45.5,29.77,SSE,158,0.0,0.0,89,0.00,CLR,FEW,0.10,WeatherDisplay:10.37,2013-09-25 13:28:00,
2013-09-25 06:33:00,48.6,45.5,29.77,SSE,158,0.0,0.0,89,0.00,CLR,FEW,0.10,WeatherDisplay:10.37,2013-09-25 13:33:00,
2013-09-25 06:38:00,48.6,45.5,29.77,SSE,158,0.0,0.0,89,0.00,CLR,FEW,0.10,WeatherDisplay:10.37,2013-09-25 13:38:00,
2013-09-25 06:43:00,48.6,45.5,29.77,SSE,158,0.0,0.0,89,0.00,CLR,FEW,0.10,WeatherDisplay:10.37,2013-09-25 13:43:00,
2013-09-25 06:48:00,48.6,45.5,29.77,SSE,158,0.0,0.0,89,0.00,CLR,FEW,0.10,WeatherDisplay:10.37,2013-09-25 13:48:00,
2013-09-25 06:53:00,48.6,45.5,29.77,SSE,158,0.0,0.0,89,0.00,CLR,FEW,0.10,WeatherDisplay:10.37,2013-09-25 13:53:00,
2013-09-25 06:58:00,48.6,45.5,29.77,SSE,158,0.0,0.0,89,0.00,CLR,FEW,0.10,WeatherDisplay:10.37,2013-09-25 13:58:00,
2013-09-25 07:03:00,48.6,45.5,29.77,SSE,158,0.0,0.0,89,0.00,CLR,FEW,0.10,WeatherDisplay:10.37,2013-09-25 14:03:00,
2013-09-25 07:08:00,48.6,45.5,29.77,SSE,158,0.0,0.0,89,0.00,CLR,FEW,0.10,WeatherDisplay:10.37,2013-09-25 14:08:00,
2013-09-25 07:13:00,48.6,45.5,29.77,SSE,158,0.0,0.0,89,0.00,CLR,FEW,0.10,WeatherDisplay:10.37,2013-09-25 14:13:00,
2013-09-25 07:18:00,48.6,45.5,29.77,SSE,158,0.0,0.0,89,0.00,CLR,FEW,0.10,WeatherDisplay:10.37,2013-09-25 14:18:00,
2013-09-25 07:23:00,48.6,45.5,29.77,SSE,158,0.0,0.0,89,0.00,CLR,FEW,0.10,WeatherDisplay:10.37,2013-09-25 14:23:00,
2013-09-25 07:28:00,48.7,45.6,29.77,SSE,158,0.0,0.0,89,0.00,CLR,FEW,0.10,WeatherDisplay:10.37,2013-09-25 14:28:00,
2013-09-25 07:33:00,48.7,45.6,29.77,SSE,158,0.0,0.0,89,0.00,CLR,FEW,0.10,WeatherDisplay:10.37,2013-09-25 14:33:00,
2013-09-25 07:38:00,48.7,45.6,29.77,SSE,158,0.0,0.0,89,0.00,CLR,FEW,0.10,WeatherDisplay:10.37,2013-09-25 14:38:00,
2013-09-25 07:43:00,48.7,45.6,29.77,SSE,158,0.0,0.0,89,0.00,CLR,FEW,0.10,WeatherDisplay:10.37,2013-09-25 14:43:00,
2013-09-25 07:48:00,48.7,45.6,29.77,SSE,158,0.0,0.0,89,0.00,CLR,FEW,0.10,WeatherDisplay:10.37,2013-09-25 14:48:00,
2013-09-25 07:53:00,48.7,45.6,29.77,SSE,158,0.0,0.0,89,0.00,CLR,FEW,0.10,WeatherDisplay:10.37,2013-09-25 14:53:00,
2013-09-25 07:58:00,48.7,45.6,29.77,SSE,158,0.0,0.0,89,0.00,CLR,FEW,0.10,WeatherDisplay:10.37,2013-09-25 14:58:00,
2013-09-25 08:03:00,48.7,45.6,29.77,SSE,158,0.0,0.0,89,0.00,CLR,FEW,0.10,WeatherDisplay:10.37,2013-09-25 15:03:00,
2013-09-25 08:08:00,48.9,45.8,29.77,SSE,158,0.0,0.0,89,0.00,CLR,FEW,0.10,WeatherDisplay:10.37,2013-09-25 15:08:00,
2013-09-25 08:13:00,48.7,45.6,29.77,SSE,158,0.0,0.0,89,0.00,CLR,FEW,0.10,WeatherDisplay:10.37,2013-09-25 15:13:00,
2013-09-25 08:18:00,48.9,45.8,29.77,SSE,158,0.0,0.0,89,0.00,CLR,FEW,0.10,WeatherDisplay:10.37,2013-09-25 15:18:00,
2013-09-25 08:23:00,48.9,45.8,29.77,SSE,158,0.0,0.0,89,0.00,CLR,FEW,0.10,WeatherDisplay:10.37,2013-09-25 15:23:00,
2013-09-25 08:28:00,48.9,45.8,29.77,SSE,158,0.0,0.0,89,0.02,RA,FEW,0.12,WeatherDisplay:10.37,2013-09-25 15:28:00,
2013-09-25 08:33:00,49.1,46.0,29.77,SSE,158,0.0,0.0,89,0.02,RA,FEW,0.12,WeatherDisplay:10.37,2013-09-25 15:33:00,
2013-09-25 08:38:00,49.1,46.0,29.77,SSE,158,0.0,0.0,89,0.02,,FEW,0.12,WeatherDisplay:10.37,2013-09-25 15:38:00,
2013-09-25 08:43:00,49.1,46.0,29.77,SSE,158,0.0,0.0,89,0.02,CLR,FEW,0.12,WeatherDisplay:10.37,2013-09-25 15:43:00,
2013-09-25 08:48:00,49.1,46.0,29.78,SSE,158,0.0,0.0,89,0.02,CLR,FEW,0.12,WeatherDisplay:10.37,2013-09-25 15:48:00,
2013-09-25 08:53:00,49.1,46.0,29.78,SSE,158,0.0,0.0,89,0.02,CLR,FEW,0.12,WeatherDisplay:10.37,2013-09-25 15:53:00,
2013-09-25 08:58:00,49.1,46.0,29.78,SSE,158,0.0,0.0,89,0.02,CLR,FEW,0.12,WeatherDisplay:10.37,2013-09-25 15:58:00,
2013-09-25 09:03:00,49.1,46.0,29.78,SSE,158,0.0,0.0,89,0.02,CLR,FEW,0.12,WeatherDisplay:10.37,2013-09-25 16:03:00,
2013-09-25 09:08:00,49.3,46.2,29.78,SSE,158,0.0,0.0,89,0.02,CLR,FEW,0.12,WeatherDisplay:10.37,2013-09-25 16:08:00,
2013-09-25 09:13:00,49.3,46.2,29.77,SSE,158,0.0,0.0,89,0.02,CLR,FEW,0.12,WeatherDisplay:10.37,2013-09-25 16:13:00,
2013-09-25 09:18:00,49.5,46.4,29.78,SSE,158,0.0,0.0,89,0.02,CLR,FEW,0.12,WeatherDisplay:10.37,2013-09-25 16:18:00,
2013-09-25 09:23:00,49.6,46.5,29.78,SSE,158,0.0,0.0,89,0.02,CLR,FEW,0.12,WeatherDisplay:10.37,2013-09-25 16:23:00,
2013-09-25 09:28:00,49.6,46.5,29.78,SSE,158,0.0,0.0,89,0.00,CLR,FEW,0.14,WeatherDisplay:10.37,2013-09-25 16:28:00,
2013-09-25 09:33:00,49.6,46.5,29.78,SSE,158,0.0,0.0,89,0.02,RA,FEW,0.14,WeatherDisplay:10.37,2013-09-25 16:33:00,
2013-09-25 09:38:00,49.6,46.2,29.78,SSE,158,0.0,0.0,88,0.02,RA,FEW,0.14,WeatherDisplay:10.37,2013-09-25 16:38:00,
2013-09-25 09:43:00,49.6,46.2,29.78,SSE,158,0.0,0.0,88,0.02,CLR,FEW,0.14,WeatherDisplay:10.37,2013-09-25 16:43:00,
2013-09-25 09:48:00,49.6,46.2,29.78,SSE,158,0.0,0.0,88,0.02,CLR,FEW,0.14,WeatherDisplay:10.37,2013-09-25 16:48:00,
2013-09-25 09:53:00,49.6,46.2,29.78,SSE,158,0.0,0.0,88,0.02,CLR,FEW,0.14,WeatherDisplay:10.37,2013-09-25 16:53:00,
2013-09-25 09:58:00,49.6,45.9,29.78,SSE,158,0.0,0.0,87,0.02,CLR,FEW,0.14,WeatherDisplay:10.37,2013-09-25 16:58:00,
2013-09-25 10:03:00,49.6,45.9,29.78,SSE,158,0.0,0.0,87,0.02,CLR,FEW,0.14,WeatherDisplay:10.37,2013-09-25 17:03:00,
2013-09-25 10:08:00,49.6,45.9,29.77,SSE,158,0.0,0.0,87,0.02,CLR,FEW,0.14,WeatherDisplay:10.37,2013-09-25 17:08:00,
2013-09-25 10:13:00,49.6,45.9,29.77,SSE,158,0.0,0.0,87,0.02,CLR,FEW,0.14,WeatherDisplay:10.37,2013-09-25 17:13:00,
2013-09-25 10:18:00,49.6,45.9,29.77,SSE,158,0.0,0.0,87,0.02,CLR,FEW,0.14,WeatherDisplay:10.37,2013-09-25 17:18:00,
2013-09-25 10:23:00,49.6,45.9,29.78,SSE,158,0.0,0.0,87,0.02,CLR,FEW,0.14,WeatherDisplay:10.37,2013-09-25 17:23:00,
2013-09-25 10:28:00,49.8,46.1,29.77,SSE,158,0.0,0.0,87,0.02,CLR,FEW,0.14,WeatherDisplay:10.37,2013-09-25 17:28:00,
2013-09-25 10:33:00,49.6,45.9,29.77,SSE,158,0.0,0.0,87,0.00,CLR,FEW,0.14,WeatherDisplay:10.37,2013-09-25 17:33:00,
2013-09-25 10:38:00,49.8,46.1,29.77,SSE,158,0.0,0.0,87,0.00,CLR,FEW,0.14,WeatherDisplay:10.37,2013-09-25 17:38:00,
2013-09-25 10:43:00,49.8,46.1,29.78,SSE,158,0.0,0.0,87,0.00,CLR,FEW,0.14,WeatherDisplay:10.37,2013-09-25 17:43:00,
2013-09-25 10:49:00,49.8,46.1,29.78,SSE,158,0.0,0.0,87,0.00,CLR,FEW,0.14,WeatherDisplay:10.37,2013-09-25 17:49:00,
2013-09-25 10:54:00,49.8,46.1,29.78,SSE,158,0.0,0.0,87,0.00,CLR,FEW,0.14,WeatherDisplay:10.37,2013-09-25 17:54:00,
2013-09-25 10:59:00,49.8,46.1,29.77,SSE,158,0.0,0.0,87,0.00,CLR,FEW,0.14,WeatherDisplay:10.37,2013-09-25 17:59:00,
2013-09-25 11:04:00,50.2,46.8,29.77,SSE,158,0.0,0.0,88,0.00,CLR,FEW,0.14,WeatherDisplay:10.37,2013-09-25 18:04:00,
2013-09-25 11:09:00,50.2,46.8,29.77,SSE,158,0.0,0.0,88,0.00,CLR,FEW,0.14,WeatherDisplay:10.37,2013-09-25 18:09:00,
2013-09-25 11:14:00,50.5,46.8,29.77,SSE,158,0.0,0.0,87,0.00,CLR,FEW,0.14,WeatherDisplay:10.37,2013-09-25 18:14:00,
2013-09-25 11:19:00,50.5,46.8,29.77,SSE,158,2.3,2.3,87,0.00,CLR,FEW,0.14,WeatherDisplay:10.37,2013-09-25 18:19:00,
2013-09-25 11:24:00,50.5,46.8,29.77,SE,135,0.0,0.0,87,0.00,CLR,FEW,0.14,WeatherDisplay:10.37,2013-09-25 18:24:00,
2013-09-25 11:29:00,50.7,47.0,29.77,SE,135,0.0,0.0,87,0.00,CLR,FEW,0.14,WeatherDisplay:10.37,2013-09-25 18:29:00,
2013-09-25 11:34:00,50.9,47.2,29.77,SE,135,0.0,0.0,87,0.00,CLR,FEW,0.14,WeatherDisplay:10.37,2013-09-25 18:34:00,
2013-09-25 11:39:00,50.9,47.2,29.77,SSE,158,0.0,0.0,87,0.00,CLR,FEW,0.14,WeatherDisplay:10.37,2013-09-25 18:39:00,
2013-09-25 11:44:00,51.4,47.7,29.77,SSE,158,0.0,0.0,87,0.00,CLR,FEW,0.14,WeatherDisplay:10.37,2013-09-25 18:44:00,
2013-09-25 11:49:00,51.4,47.4,29.77,SSE,158,1.1,1.1,86,0.00,CLR,FEW,0.14,WeatherDisplay:10.37,2013-09-25 18:49:00,
2013-09-25 11:54:00,51.4,47.4,29.77,South,180,4.0,4.0,86,0.00,CLR,FEW,0.14,WeatherDisplay:10.37,2013-09-25 18:54:00,
2013-09-25 11:59:00,51.6,47.6,29.77,SSE,158,2.5,2.5,86,0.00,CLR,FEW,0.14,WeatherDisplay:10.37,2013-09-25 18:59:00,
2013-09-25 12:04:00,51.6,47.3,29.77,South,180,3.5,3.5,85,0.00,CLR,FEW,0.14,WeatherDisplay:10.37,2013-09-25 19:04:00,
2013-09-25 12:09:00,51.4,47.1,29.77,SSE,158,0.0,0.0,85,0.00,CLR,FEW,0.14,WeatherDisplay:10.37,2013-09-25 19:09:00,
2013-09-25 12:14:00,51.6,47.3,29.77,SSE,158,1.1,1.1,85,0.00,CLR,FEW,0.14,WeatherDisplay:10.37,2013-09-25 19:14:00,
2013-09-25 12:19:00,51.6,47.3,29.77,SSE,158,4.0,4.0,85,0.00,CLR,FEW,0.14,WeatherDisplay:10.37,2013-09-25 19:19:00,
2013-09-25 12:24:00,51.4,47.1,29.77,SSE,158,2.7,2.7,85,0.00,CLR,FEW,0.14,WeatherDisplay:10.37,2013-09-25 19:24:00,
2013-09-25 12:29:00,51.4,47.1,29.77,SSE,158,1.1,1.1,85,0.00,CLR,FEW,0.14,WeatherDisplay:10.37,2013-09-25 19:29:00,
2013-09-25 12:34:00,51.1,46.7,29.77,South,180,3.5,3.5,85,0.00,CLR,FEW,0.14,WeatherDisplay:10.37,2013-09-25 19:34:00,
2013-09-25 12:39:00,51.1,46.7,29.77,SSE,158,6.3,6.3,85,0.00,CLR,FEW,0.14,WeatherDisplay:10.37,2013-09-25 19:39:00,
2013-09-25 12:44:00,50.9,46.6,29.77,South,180,5.1,5.1,85,0.00,CLR,FEW,0.14,WeatherDisplay:10.37,2013-09-25 19:44:00,
2013-09-25 12:49:00,50.9,46.6,29.76,South,180,6.9,7.4,85,0.00,CLR,FEW,0.14,WeatherDisplay:10.37,2013-09-25 19:49:00,
2013-09-25 12:54:00,50.9,46.6,29.76,South,180,7.2,7.2,85,0.00,CLR,FEW,0.14,WeatherDisplay:10.37,2013-09-25 19:54:00,
2013-09-25 12:59:00,51.1,46.7,29.77,SSE,158,6.5,6.5,85,0.00,CLR,FEW,0.14,WeatherDisplay:10.37,2013-09-25 19:59:00,
2013-09-25 13:04:00,51.1,46.7,29.76,SSE,158,5.8,5.8,85,0.00,CLR,FEW,0.14,WeatherDisplay:10.37,2013-09-25 20:04:00,
2013-09-25 13:09:00,51.1,46.7,29.77,South,180,8.1,8.1,85,0.00,CLR,FEW,0.14,WeatherDisplay:10.37,2013-09-25 20:09:00,
2013-09-25 13:14:00,51.1,46.7,29.77,SSE,158,6.9,6.9,85,0.00,CLR,FEW,0.14,WeatherDisplay:10.37,2013-09-25 20:14:00,
2013-09-25 13:19:00,51.3,46.9,29.77,SSE,158,3.5,3.5,85,0.00,CLR,FEW,0.14,WeatherDisplay:10.37,2013-09-25 20:19:00,
2013-09-25 13:24:00,51.4,47.1,29.76,SE,135,5.8,5.8,85,0.00,CLR,FEW,0.14,WeatherDisplay:10.37,2013-09-25 20:24:00,
2013-09-25 13:29:00,51.6,47.3,29.76,SE,135,5.8,5.8,85,0.00,CLR,FEW,0.14,WeatherDisplay:10.37,2013-09-25 20:29:00,
2013-09-25 13:34:00,52.0,47.6,29.76,SE,135,6.9,6.9,85,0.00,CLR,FEW,0.14,WeatherDisplay:10.37,2013-09-25 20:34:00,
2013-09-25 13:39:00,52.2,47.8,29.76,SE,135,4.6,5.1,85,0.00,CLR,FEW,0.14,WeatherDisplay:10.37,2013-09-25 20:39:00,
2013-09-25 13:44:00,52.3,48.0,29.77,SSE,158,1.3,1.4,85,0.00,CLR,FEW,0.14,WeatherDisplay:10.37,2013-09-25 20:44:00,
2013-09-25 13:49:00,52.7,48.0,29.77,SSE,158,3.5,4.0,84,0.00,CLR,FEW,0.14,WeatherDisplay:10.37,2013-09-25 20:49:00,
2013-09-25 13:54:00,52.9,47.9,29.76,SSE,158,6.9,6.9,83,0.00,CLR,FEW,0.14,WeatherDisplay:10.37,2013-09-25 20:54:00,
2013-09-25 13:59:00,52.9,47.9,29.77,South,180,4.6,4.6,83,0.00,CLR,FEW,0.14,WeatherDisplay:10.37,2013-09-25 20:59:00,
2013-09-25 14:04:00,52.9,47.9,29.76,SSE,158,9.2,9.2,83,0.00,CLR,FEW,0.14,WeatherDisplay:10.37,2013-09-25 21:04:00,
2013-09-25 14:09:00,52.9,47.9,29.76,SSE,158,9.2,9.2,83,0.00,CLR,FEW,0.14,WeatherDisplay:10.37,2013-09-25 21:09:00,
2013-09-25 14:14:00,52.9,47.9,29.76,SSE,158,6.9,6.9,83,0.00,CLR,FEW,0.14,WeatherDisplay:10.37,2013-09-25 21:14:00,
2013-09-25 14:19:00,52.9,47.9,29.77,South,180,8.1,8.1,83,0.00,CLR,FEW,0.14,WeatherDisplay:10.37,2013-09-25 21:19:00,
2013-09-25 14:25:00,52.9,47.9,29.77,South,180,6.3,6.3,83,0.00,CLR,FEW,0.14,WeatherDisplay:10.37,2013-09-25 21:25:00,
2013-09-25 14:30:00,52.9,47.5,29.77,SSE,158,3.5,3.5,82,0.00,CLR,FEW,0.14,WeatherDisplay:10.37,2013-09-25 21:30:00,
2013-09-25 14:35:00,52.9,47.5,29.77,SSE,158,6.0,6.0,82,0.00,CLR,FEW,0.14,WeatherDisplay:10.37,2013-09-25 21:35:00,
2013-09-25 14:40:00,53.1,47.7,29.77,SSE,158,6.9,6.9,82,0.00,CLR,FEW,0.14,WeatherDisplay:10.37,2013-09-25 21:40:00,
2013-09-25 14:45:00,52.9,47.5,29.77,South,180,5.8,6.3,82,0.00,CLR,FEW,0.14,WeatherDisplay:10.37,2013-09-25 21:45:00,
2013-09-25 14:54:00,52.9,47.2,29.77,SSE,158,8.1,8.1,81,0.00,CLR,FEW,0.14,WeatherDisplay:10.37,2013-09-25 21:54:00,
2013-09-25 14:59:00,52.9,47.2,29.77,South,180,6.9,6.9,81,0.00,CLR,FEW,0.14,WeatherDisplay:10.37,2013-09-25 21:59:00,
2013-09-25 15:04:00,52.9,47.2,29.77,South,180,8.1,8.1,81,0.00,CLR,FEW,0.14,WeatherDisplay:10.37,2013-09-25 22:04:00,
2013-09-25 15:09:00,52.9,47.2,29.77,SSE,158,7.2,7.2,81,0.00,CLR,FEW,0.14,WeatherDisplay:10.37,2013-09-25 22:09:00,
2013-09-25 15:14:00,52.9,47.2,29.77,South,180,9.2,9.2,81,0.00,CLR,FEW,0.14,WeatherDisplay:10.37,2013-09-25 22:14:00,
2013-09-25 15:19:00,52.9,47.2,29.77,South,180,7.2,7.2,81,0.00,CLR,FEW,0.14,WeatherDisplay:10.37,2013-09-25 22:19:00,
2013-09-25 15:24:00,52.9,47.2,29.77,SSE,158,8.1,8.1,81,0.00,CLR,FEW,0.14,WeatherDisplay:10.37,2013-09-25 22:24:00,
2013-09-25 15:29:00,52.9,47.5,29.77,SSE,158,3.5,3.5,82,0.00,CLR,FEW,0.14,WeatherDisplay:10.37,2013-09-25 22:29:00,
2013-09-25 15:34:00,52.9,47.5,29.77,SSE,158,4.9,4.9,82,0.00,CLR,FEW,0.14,WeatherDisplay:10.37,2013-09-25 22:34:00,
2013-09-25 15:39:00,53.2,47.9,29.77,South,180,3.5,3.5,82,0.00,CLR,FEW,0.14,WeatherDisplay:10.37,2013-09-25 22:39:00,
2013-09-25 15:44:00,53.4,48.1,29.76,South,180,8.1,8.1,82,0.00,CLR,FEW,0.14,WeatherDisplay:10.37,2013-09-25 22:44:00,
2013-09-25 15:49:00,53.4,48.1,29.76,South,180,8.1,8.1,82,0.00,CLR,FEW,0.14,WeatherDisplay:10.37,2013-09-25 22:49:00,
2013-09-25 15:55:00,53.4,48.1,29.77,South,180,8.1,8.1,82,0.00,CLR,FEW,0.14,WeatherDisplay:10.37,2013-09-25 22:55:00,
2013-09-25 16:00:00,53.4,48.1,29.77,SSE,158,5.8,5.8,82,0.00,CLR,FEW,0.14,WeatherDisplay:10.37,2013-09-25 23:00:00,
2013-09-25 16:05:00,53.4,48.1,29.77,South,180,5.8,5.8,82,0.00,CLR,FEW,0.14,WeatherDisplay:10.37,2013-09-25 23:05:00,
2013-09-25 16:10:00,53.4,48.1,29.77,SSE,158,6.9,6.9,82,0.00,CLR,FEW,0.14,WeatherDisplay:10.37,2013-09-25 23:10:00,
2013-09-25 16:15:00,53.4,47.7,29.77,South,180,6.9,6.9,81,0.00,CLR,FEW,0.14,WeatherDisplay:10.37,2013-09-25 23:15:00,
2013-09-25 16:20:00,53.4,47.7,29.77,SSE,158,8.1,8.1,81,0.00,CLR,FEW,0.14,WeatherDisplay:10.37,2013-09-25 23:20:00,
2013-09-25 16:25:00,53.4,47.7,29.77,SE,135,4.6,4.7,81,0.00,CLR,FEW,0.14,WeatherDisplay:10.37,2013-09-25 23:25:00,
2013-09-25 16:30:00,53.4,47.7,29.77,SSE,158,4.6,4.6,81,0.00,CLR,FEW,0.14,WeatherDisplay:10.37,2013-09-25 23:30:00,
2013-09-25 16:35:00,53.4,47.7,29.77,SSE,158,7.2,7.2,81,0.00,CLR,FEW,0.14,WeatherDisplay:10.37,2013-09-25 23:35:00,
2013-09-25 16:40:00,53.2,47.9,29.77,SSE,158,6.9,6.9,82,0.00,CLR,FEW,0.14,WeatherDisplay:10.37,2013-09-25 23:40:00,
2013-09-25 16:45:00,53.2,47.9,29.77,SSE,158,5.1,5.1,82,0.00,CLR,FEW,0.14,WeatherDisplay:10.37,2013-09-25 23:45:00,
2013-09-25 16:50:00,53.2,47.9,29.77,SSE,158,6.5,6.5,82,0.00,CLR,FEW,0.14,WeatherDisplay:10.37,2013-09-25 23:50:00,
2013-09-25 16:55:00,53.2,47.9,29.77,South,180,8.1,8.1,82,0.00,CLR,FEW,0.14,WeatherDisplay:10.37,2013-09-25 23:55:00,
2013-09-25 17:00:00,52.9,47.5,29.77,South,180,7.4,7.4,82,0.00,CLR,FEW,0.14,WeatherDisplay:10.37,2013-09-26 00:00:00,
2013-09-25 17:05:00,52.9,47.5,29.77,SSE,158,8.1,8.1,82,0.00,CLR,FEW,0.14,WeatherDisplay:10.37,2013-09-26 00:05:00,
2013-09-25 17:10:00,52.7,47.7,29.77,SE,135,8.3,8.3,83,0.00,CLR,FEW,0.14,WeatherDisplay:10.37,2013-09-26 00:10:00,
2013-09-25 17:15:00,52.7,47.7,29.77,SE,135,5.8,5.8,83,0.00,CLR,FEW,0.14,WeatherDisplay:10.37,2013-09-26 00:15:00,
2013-09-25 17:20:00,52.5,47.5,29.77,SSE,158,9.2,9.2,83,0.00,CLR,FEW,0.14,WeatherDisplay:10.37,2013-09-26 00:20:00,
2013-09-25 17:25:00,52.5,47.5,29.77,SSE,158,5.8,5.8,83,0.00,CLR,FEW,0.14,WeatherDisplay:10.37,2013-09-26 00:25:00,
2013-09-25 17:30:00,52.3,47.3,29.77,SSE,158,4.9,4.9,83,0.00,CLR,FEW,0.14,WeatherDisplay:10.37,2013-09-26 00:30:00,
2013-09-25 17:35:00,52.3,47.3,29.77,SE,135,7.6,7.6,83,0.00,CLR,FEW,0.14,WeatherDisplay:10.37,2013-09-26 00:35:00,
2013-09-25 17:40:00,52.2,47.5,29.77,SE,135,5.8,5.8,84,0.00,CLR,FEW,0.14,WeatherDisplay:10.37,2013-09-26 00:40:00,
2013-09-25 17:45:00,52.2,47.5,29.77,SE,135,4.6,4.6,84,0.00,CLR,FEW,0.14,WeatherDisplay:10.37,2013-09-26 00:45:00,
2013-09-25 17:50:00,52.2,47.5,29.77,SE,135,4.6,4.9,84,0.00,CLR,FEW,0.14,WeatherDisplay:10.37,2013-09-26 00:50:00,
2013-09-25 17:55:00,52.0,47.6,29.77,SE,135,4.6,4.6,85,0.00,CLR,FEW,0.14,WeatherDisplay:10.37,2013-09-26 00:55:00,
2013-09-25 18:00:00,52.0,47.6,29.78,SE,135,2.7,2.7,85,0.00,CLR,FEW,0.14,WeatherDisplay:10.37,2013-09-26 01:00:00,
2013-09-25 18:05:00,51.8,47.7,29.77,SE,135,2.3,2.3,86,0.00,CLR,FEW,0.14,WeatherDisplay:10.37,2013-09-26 01:05:00,
2013-09-25 18:10:00,51.8,47.7,29.77,SSE,158,2.3,2.3,86,0.00,CLR,FEW,0.16,WeatherDisplay:10.37,2013-09-26 01:10:00,
2013-09-25 18:15:00,51.8,47.7,29.77,SSE,158,3.5,0.0,86,0.02,RA,FEW,0.16,WeatherDisplay:10.37,2013-09-26 01:15:00,
2013-09-25 18:20:00,51.8,47.7,29.77,SSE,158,0.0,0.0,86,0.02,RA,FEW,0.16,WeatherDisplay:10.37,2013-09-26 01:20:00,
2013-09-25 18:25:00,51.8,47.7,29.78,SSE,158,0.0,0.0,86,0.02,CLR,FEW,0.16,WeatherDisplay:10.37,2013-09-26 01:25:00,
2013-09-25 18:30:00,51.8,47.7,29.78,SSE,158,3.5,3.5,86,0.02,CLR,FEW,0.16,WeatherDisplay:10.37,2013-09-26 01:30:00,
2013-09-25 18:35:00,51.6,47.6,29.77,SSE,158,0.0,0.0,86,0.02,CLR,FEW,0.16,WeatherDisplay:10.37,2013-09-26 01:35:00,
2013-09-25 18:40:00,51.8,47.7,29.77,SSE,158,0.0,0.0,86,0.02,CLR,FEW,0.16,WeatherDisplay:10.37,2013-09-26 01:40:00,
2013-09-25 18:45:00,51.8,47.7,29.78,SSE,158,0.0,0.0,86,0.02,CLR,FEW,0.16,WeatherDisplay:10.37,2013-09-26 01:45:00,
2013-09-25 18:50:00,51.8,47.7,29.78,SSE,158,0.0,0.0,86,0.02,CLR,FEW,0.16,WeatherDisplay:10.37,2013-09-26 01:50:00,
2013-09-25 18:55:00,51.8,48.1,29.78,SSE,158,0.0,0.0,87,0.02,CLR,FEW,0.16,WeatherDisplay:10.37,2013-09-26 01:55:00,
2013-09-25 19:00:00,51.8,48.1,29.78,SSE,158,0.0,0.0,87,0.02,CLR,FEW,0.16,WeatherDisplay:10.37,2013-09-26 02:00:00,
2013-09-25 19:05:00,51.8,48.1,29.78,SSE,158,0.0,0.0,87,0.04,RA,FEW,0.18,WeatherDisplay:10.37,2013-09-26 02:05:00,
2013-09-25 19:10:00,51.8,48.1,29.78,SSE,158,0.0,0.0,87,0.02,RA,FEW,0.18,WeatherDisplay:10.37,2013-09-26 02:10:00,
2013-09-25 19:15:00,51.6,47.9,29.79,SSE,158,0.0,0.0,87,0.02,CLR,FEW,0.18,WeatherDisplay:10.37,2013-09-26 02:15:00,
2013-09-25 19:20:00,51.6,47.9,29.79,SSE,158,0.0,0.0,87,0.02,CLR,FEW,0.18,WeatherDisplay:10.37,2013-09-26 02:20:00,
2013-09-25 19:25:00,51.6,47.9,29.79,SSE,158,0.0,0.0,87,0.02,CLR,FEW,0.18,WeatherDisplay:10.37,2013-09-26 02:25:00,
2013-09-25 19:30:00,51.6,47.9,29.79,SSE,158,0.0,0.0,87,0.04,RA,FEW,0.20,WeatherDisplay:10.37,2013-09-26 02:30:00,
2013-09-25 19:35:00,51.6,47.9,29.79,SSE,158,0.0,0.0,87,0.04,RA,FEW,0.20,WeatherDisplay:10.37,2013-09-26 02:35:00,
2013-09-25 19:40:00,51.6,47.9,29.79,SSE,158,0.0,0.0,87,0.04,CLR,FEW,0.20,WeatherDisplay:10.37,2013-09-26 02:40:00,
2013-09-25 19:46:00,51.6,48.2,29.79,SSE,158,0.0,0.0,88,0.04,CLR,FEW,0.20,WeatherDisplay:10.37,2013-09-26 02:46:00,
2013-09-25 19:51:00,51.4,48.0,29.79,SSE,158,0.0,0.0,88,0.04,CLR,FEW,0.20,WeatherDisplay:10.37,2013-09-26 02:51:00,
2013-09-25 19:56:00,51.3,47.8,29.79,SSE,158,0.0,0.0,88,0.06,RA,FEW,0.22,WeatherDisplay:10.37,2013-09-26 02:56:00,
2013-09-25 20:01:00,51.1,47.6,29.79,SSE,158,0.0,0.0,88,0.06,RA,FEW,0.22,WeatherDisplay:10.37,2013-09-26 03:01:00,
2013-09-25 20:06:00,51.1,47.6,29.79,SSE,158,2.3,2.3,88,0.04,CLR,FEW,0.22,WeatherDisplay:10.37,2013-09-26 03:06:00,
2013-09-25 20:11:00,50.9,47.5,29.79,SSE,158,0.0,0.0,88,0.06,RA,FEW,0.24,WeatherDisplay:10.37,2013-09-26 03:11:00,
2013-09-25 20:16:00,50.9,47.5,29.79,SSE,158,1.1,1.1,88,0.06,RA,FEW,0.24,WeatherDisplay:10.37,2013-09-26 03:16:00,
2013-09-25 20:21:00,50.7,47.3,29.79,SSE,158,0.0,0.0,88,0.08,RA,FEW,0.26,WeatherDisplay:10.37,2013-09-26 03:21:00,
2013-09-25 20:26:00,50.7,47.3,29.80,SSE,158,0.0,0.0,88,0.08,RA,FEW,0.26,WeatherDisplay:10.37,2013-09-26 03:26:00,
2013-09-25 20:31:00,50.7,47.6,29.80,SE,135,4.0,4.0,89,0.06,CLR,FEW,0.26,WeatherDisplay:10.37,2013-09-26 03:31:00,
2013-09-25 20:36:00,50.7,47.6,29.80,SSE,158,1.1,1.1,89,0.06,CLR,FEW,0.26,WeatherDisplay:10.37,2013-09-26 03:36:00,
2013-09-25 20:41:00,50.7,47.6,29.80,SSE,158,0.0,0.0,89,0.06,CLR,FEW,0.26,WeatherDisplay:10.37,2013-09-26 03:41:00,
2013-09-25 20:46:00,50.5,47.4,29.79,SSE,158,3.1,3.1,89,0.08,RA,FEW,0.28,WeatherDisplay:10.37,2013-09-26 03:46:00,
2013-09-25 20:51:00,50.5,47.4,29.79,SSE,158,2.3,2.3,89,0.08,RA,FEW,0.28,WeatherDisplay:10.37,2013-09-26 03:51:00,
2013-09-25 20:56:00,50.5,47.4,29.79,SSE,158,3.5,3.5,89,0.06,,FEW,0.28,WeatherDisplay:10.37,2013-09-26 03:56:00,
2013-09-25 21:01:00,50.5,47.4,29.79,SSE,158,1.1,1.3,89,0.06,CLR,FEW,0.28,WeatherDisplay:10.37,2013-09-26 04:01:00,
2013-09-25 21:02:00,50.5,47.7,29.79,SSE,158,1.1,0.0,90,0.06,CLR,FEW,0.28,WeatherDisplay:10.37,2013-09-26 04:02:00,
2013-09-25 21:07:00,50.5,47.7,29.80,SSE,158,0.0,0.0,90,0.06,CLR,FEW,0.28,WeatherDisplay:10.37,2013-09-26 04:07:00,
2013-09-25 21:12:00,50.5,47.7,29.79,SSE,158,0.0,0.0,90,0.04,CLR,FEW,0.28,WeatherDisplay:10.37,2013-09-26 04:12:00,
2013-09-25 21:17:00,50.5,47.7,29.79,SSE,158,0.0,0.0,90,0.04,CLR,FEW,0.28,WeatherDisplay:10.37,2013-09-26 04:17:00,
2013-09-25 21:22:00,50.5,47.7,29.79,SSE,158,0.0,0.0,90,0.02,CLR,FEW,0.28,WeatherDisplay:10.37,2013-09-26 04:22:00,
2013-09-25 21:27:00,50.4,47.5,29.79,SSE,158,0.0,0.0,90,0.02,CLR,FEW,0.28,WeatherDisplay:10.37,2013-09-26 04:27:00,
2013-09-25 21:32:00,50.4,47.5,29.79,SSE,158,0.0,0.0,90,0.02,CLR,FEW,0.28,WeatherDisplay:10.37,2013-09-26 04:32:00,
2013-09-25 21:37:00,50.4,47.5,29.80,SSE,158,0.0,0.0,90,0.02,CLR,FEW,0.28,WeatherDisplay:10.37,2013-09-26 04:37:00,
2013-09-25 21:42:00,50.5,47.7,29.79,SSE,158,0.0,0.0,90,0.02,CLR,FEW,0.28,WeatherDisplay:10.37,2013-09-26 04:42:00,
2013-09-25 21:47:00,50.5,47.7,29.79,SSE,158,0.0,0.0,90,0.00,CLR,FEW,0.28,WeatherDisplay:10.37,2013-09-26 04:47:00,
2013-09-25 21:52:00,50.5,47.7,29.79,SSE,158,0.0,0.0,90,0.00,CLR,FEW,0.28,WeatherDisplay:10.37,2013-09-26 04:52:00,
2013-09-25 21:57:00,50.5,47.7,29.79,SSE,158,0.0,0.0,90,0.00,CLR,FEW,0.28,WeatherDisplay:10.37,2013-09-26 04:57:00,
2013-09-25 22:02:00,50.5,47.7,29.80,SSE,158,0.0,0.0,90,0.00,CLR,FEW,0.28,WeatherDisplay:10.37,2013-09-26 05:02:00,
2013-09-25 22:07:00,50.4,47.5,29.80,SSE,158,0.0,0.0,90,0.00,CLR,FEW,0.28,WeatherDisplay:10.37,2013-09-26 05:07:00,
2013-09-25 22:12:00,50.4,47.5,29.80,SSE,158,0.0,0.0,90,0.00,CLR,FEW,0.28,WeatherDisplay:10.37,2013-09-26 05:12:00,
2013-09-25 22:17:00,50.4,47.5,29.80,SSE,158,0.0,0.0,90,0.00,CLR,FEW,0.28,WeatherDisplay:10.37,2013-09-26 05:17:00,
2013-09-25 22:22:00,50.4,47.5,29.81,SE,135,0.0,0.0,90,0.00,CLR,FEW,0.28,WeatherDisplay:10.37,2013-09-26 05:22:00,
2013-09-25 22:27:00,50.4,47.5,29.81,SE,135,0.0,0.0,90,0.00,CLR,FEW,0.28,WeatherDisplay:10.37,2013-09-26 05:27:00,
2013-09-25 22:32:00,50.4,47.5,29.81,SE,135,0.0,0.0,90,0.00,CLR,FEW,0.28,WeatherDisplay:10.37,2013-09-26 05:32:00,
2013-09-25 22:37:00,50.4,47.5,29.81,SE,135,0.0,0.0,90,0.00,CLR,FEW,0.28,WeatherDisplay:10.37,2013-09-26 05:37:00,
2013-09-25 22:42:00,50.4,47.5,29.80,SE,135,0.0,0.0,90,0.00,CLR,FEW,0.28,WeatherDisplay:10.37,2013-09-26 05:42:00,
2013-09-25 22:47:00,50.4,47.5,29.80,SE,135,0.0,0.0,90,0.00,CLR,FEW,0.28,WeatherDisplay:10.37,2013-09-26 05:47:00,
2013-09-25 22:52:00,50.5,47.7,29.80,SE,135,0.0,0.0,90,0.00,CLR,FEW,0.28,WeatherDisplay:10.37,2013-09-26 05:52:00,
2013-09-25 22:57:00,50.5,47.7,29.80,SE,135,0.0,0.0,90,0.00,CLR,FEW,0.28,WeatherDisplay:10.37,2013-09-26 05:57:00,
2013-09-25 23:02:00,50.5,47.7,29.80,SE,135,0.0,0.0,90,0.00,CLR,FEW,0.28,WeatherDisplay:10.37,2013-09-26 06:02:00,
2013-09-25 23:07:00,50.5,47.7,29.80,SE,135,0.0,0.0,90,0.00,CLR,FEW,0.28,WeatherDisplay:10.37,2013-09-26 06:07:00,
2013-09-25 23:12:00,50.5,47.7,29.80,SE,135,0.0,0.0,90,0.00,CLR,FEW,0.28,WeatherDisplay:10.37,2013-09-26 06:12:00,
2013-09-25 23:17:00,50.5,47.7,29.80,SE,135,0.0,0.0,90,0.00,CLR,FEW,0.28,WeatherDisplay:10.37,2013-09-26 06:17:00,
2013-09-25 23:22:00,50.5,47.7,29.81,SE,135,0.0,0.0,90,0.00,CLR,FEW,0.28,WeatherDisplay:10.37,2013-09-26 06:22:00,
2013-09-25 23:27:00,50.5,47.7,29.81,SE,135,0.0,0.0,90,0.00,CLR,FEW,0.28,WeatherDisplay:10.37,2013-09-26 06:27:00,
2013-09-25 23:32:00,50.5,47.7,29.80,SE,135,0.0,0.0,90,0.00,CLR,FEW,0.28,WeatherDisplay:10.37,2013-09-26 06:32:00,
2013-09-25 23:37:00,50.5,47.7,29.81,SE,135,0.0,0.0,90,0.00,CLR,FEW,0.28,WeatherDisplay:10.37,2013-09-26 06:37:00,
2013-09-25 23:42:00,50.5,47.7,29.81,SE,135,0.0,0.0,90,0.00,CLR,FEW,0.28,WeatherDisplay:10.37,2013-09-26 06:42:00,
2013-09-25 23:48:00,50.5,47.7,29.81,SE,135,0.0,0.0,90,0.00,CLR,FEW,0.28,WeatherDisplay:10.37,2013-09-26 06:48:00,
2013-09-25 23:53:00,50.5,47.7,29.80,SE,135,0.0,0.0,90,0.00,CLR,FEW,0.28,WeatherDisplay:10.37,2013-09-26 06:53:00,
2013-09-25 23:58:00,50.5,47.7,29.81,SE,135,0.0,0.0,90,0.00,CLR,FEW,0.28,WeatherDisplay:10.37,2013-09-26 06:58:00,